sensor_id;sensor_type;location;lat;lon;timestamp;P1;durP1;ratioP1;P2;durP2;ratioP2
56267;SDS011;42175;46.930;9.532;2022-11-02T00:00:25;9.38;;;4.00;;
56267;SDS011;42175;46.930;9.532;2022-11-02T00:02:51;9.35;;;3.50;;
56267;SDS011;42175;46.930;9.532;2022-11-02T00:05:17;9.80;;;3.67;;
56267;SDS011;42175;46.930;9.532;2022-11-02T00:07:48;8.40;;;2.80;;
56267;SDS011;42175;46.930;9.532;2022-11-02T00:10:17;11.70;;;3.47;;
56267;SDS011;42175;46.930;9.532;2022-11-02T00:12:44;9.95;;;3.20;;
56267;SDS011;42175;46.930;9.532;2022-11-02T00:15:10;8.73;;;3.33;;
56267;SDS011;42175;46.930;9.532;2022-11-02T00:17:36;11.05;;;3.65;;
56267;SDS011;42175;46.930;9.532;2022-11-02T00:20:05;8.18;;;3.15;;
56267;SDS011;42175;46.930;9.532;2022-11-02T00:22:32;10.18;;;4.15;;
56267;SDS011;42175;46.930;9.532;2022-11-02T00:24:59;9.85;;;3.08;;
56267;SDS011;42175;46.930;9.532;2022-11-02T00:27:28;9.98;;;3.45;;
56267;SDS011;42175;46.930;9.532;2022-11-02T00:29:55;8.63;;;3.88;;
56267;SDS011;42175;46.930;9.532;2022-11-02T00:32:23;6.63;;;3.28;;
56267;SDS011;42175;46.930;9.532;2022-11-02T00:34:50;9.80;;;3.50;;
56267;SDS011;42175;46.930;9.532;2022-11-02T00:37:15;9.00;;;3.13;;
56267;SDS011;42175;46.930;9.532;2022-11-02T00:39:41;9.82;;;3.60;;
56267;SDS011;42175;46.930;9.532;2022-11-02T00:42:07;12.65;;;3.40;;
56267;SDS011;42175;46.930;9.532;2022-11-02T00:44:33;8.25;;;3.10;;
56267;SDS011;42175;46.930;9.532;2022-11-02T00:46:59;8.27;;;3.30;;
56267;SDS011;42175;46.930;9.532;2022-11-02T00:49:24;8.10;;;2.60;;
56267;SDS011;42175;46.930;9.532;2022-11-02T00:51:50;9.93;;;3.75;;
56267;SDS011;42175;46.930;9.532;2022-11-02T00:54:16;7.50;;;3.75;;
56267;SDS011;42175;46.930;9.532;2022-11-02T00:56:42;5.68;;;3.17;;
56267;SDS011;42175;46.930;9.532;2022-11-02T00:59:07;9.45;;;3.40;;
56267;SDS011;42175;46.930;9.532;2022-11-02T01:01:33;7.70;;;3.25;;
56267;SDS011;42175;46.930;9.532;2022-11-02T01:03:59;9.70;;;3.28;;
56267;SDS011;42175;46.930;9.532;2022-11-02T01:06:25;10.85;;;3.42;;
56267;SDS011;42175;46.930;9.532;2022-11-02T01:08:50;6.63;;;3.30;;
56267;SDS011;42175;46.930;9.532;2022-11-02T01:11:19;11.45;;;3.08;;
56267;SDS011;42175;46.930;9.532;2022-11-02T01:13:46;6.55;;;2.63;;
56267;SDS011;42175;46.930;9.532;2022-11-02T01:16:14;8.85;;;4.10;;
56267;SDS011;42175;46.930;9.532;2022-11-02T01:18:40;12.18;;;3.53;;
56267;SDS011;42175;46.930;9.532;2022-11-02T01:21:06;6.63;;;3.10;;
56267;SDS011;42175;46.930;9.532;2022-11-02T01:23:33;9.27;;;3.20;;
56267;SDS011;42175;46.930;9.532;2022-11-02T01:26:04;6.63;;;3.10;;
56267;SDS011;42175;46.930;9.532;2022-11-02T01:28:31;8.40;;;3.15;;
56267;SDS011;42175;46.930;9.532;2022-11-02T01:30:57;9.80;;;3.53;;
56267;SDS011;42175;46.930;9.532;2022-11-02T01:33:25;6.60;;;2.72;;
56267;SDS011;42175;46.930;9.532;2022-11-02T01:35:51;6.15;;;2.75;;
56267;SDS011;42175;46.930;9.532;2022-11-02T01:38:17;6.97;;;3.40;;
56267;SDS011;42175;46.930;9.532;2022-11-02T01:40:44;7.93;;;4.35;;
56267;SDS011;42175;46.930;9.532;2022-11-02T01:48:35;12.98;;;2.85;;
56267;SDS011;42175;46.930;9.532;2022-11-02T01:51:05;6.28;;;2.83;;
56267;SDS011;42175;46.930;9.532;2022-11-02T01:53:42;7.40;;;3.25;;
56267;SDS011;42175;46.930;9.532;2022-11-02T01:56:11;12.43;;;4.00;;
56267;SDS011;42175;46.930;9.532;2022-11-02T01:58:40;9.05;;;2.63;;
56267;SDS011;42175;46.930;9.532;2022-11-02T02:01:09;6.65;;;3.20;;
56267;SDS011;42175;46.930;9.532;2022-11-02T02:03:35;9.20;;;3.03;;
56267;SDS011;42175;46.930;9.532;2022-11-02T02:06:05;11.05;;;3.78;;
56267;SDS011;42175;46.930;9.532;2022-11-02T02:08:36;6.88;;;3.20;;
56267;SDS011;42175;46.930;9.532;2022-11-02T02:16:17;6.72;;;2.40;;
56267;SDS011;42175;46.930;9.532;2022-11-02T02:18:55;6.35;;;2.83;;
56267;SDS011;42175;46.930;9.532;2022-11-02T02:21:37;11.10;;;3.17;;
56267;SDS011;42175;46.930;9.532;2022-11-02T02:24:49;9.35;;;3.35;;
56267;SDS011;42175;46.930;9.532;2022-11-02T02:30:39;8.57;;;3.20;;
56267;SDS011;42175;46.930;9.532;2022-11-02T02:33:12;7.32;;;2.50;;
56267;SDS011;42175;46.930;9.532;2022-11-02T02:35:50;12.23;;;3.28;;
56267;SDS011;42175;46.930;9.532;2022-11-02T02:40:56;7.60;;;2.53;;
56267;SDS011;42175;46.930;9.532;2022-11-02T02:43:39;9.50;;;3.53;;
56267;SDS011;42175;46.930;9.532;2022-11-02T02:46:28;9.50;;;3.25;;
56267;SDS011;42175;46.930;9.532;2022-11-02T02:49:02;9.27;;;3.05;;
56267;SDS011;42175;46.930;9.532;2022-11-02T02:51:32;11.20;;;3.50;;
56267;SDS011;42175;46.930;9.532;2022-11-02T02:54:01;10.73;;;3.35;;
56267;SDS011;42175;46.930;9.532;2022-11-02T02:56:38;9.68;;;3.22;;
56267;SDS011;42175;46.930;9.532;2022-11-02T02:59:27;7.75;;;3.35;;
56267;SDS011;42175;46.930;9.532;2022-11-02T03:01:55;7.03;;;2.47;;
56267;SDS011;42175;46.930;9.532;2022-11-02T03:04:23;10.95;;;3.05;;
56267;SDS011;42175;46.930;9.532;2022-11-02T03:06:50;6.65;;;3.05;;
56267;SDS011;42175;46.930;9.532;2022-11-02T03:12:21;8.65;;;2.95;;
56267;SDS011;42175;46.930;9.532;2022-11-02T03:26:22;5.82;;;2.40;;
56267;SDS011;42175;46.930;9.532;2022-11-02T03:29:13;5.87;;;2.80;;
56267;SDS011;42175;46.930;9.532;2022-11-02T03:31:46;9.52;;;3.78;;
56267;SDS011;42175;46.930;9.532;2022-11-02T03:39:37;5.03;;;2.47;;
56267;SDS011;42175;46.930;9.532;2022-11-02T03:42:10;8.73;;;4.13;;
56267;SDS011;42175;46.930;9.532;2022-11-02T03:44:40;10.25;;;3.00;;
56267;SDS011;42175;46.930;9.532;2022-11-02T03:47:07;9.73;;;2.92;;
56267;SDS011;42175;46.930;9.532;2022-11-02T03:49:38;7.05;;;2.72;;
56267;SDS011;42175;46.930;9.532;2022-11-02T03:52:07;7.43;;;2.78;;
56267;SDS011;42175;46.930;9.532;2022-11-02T03:57:16;6.35;;;2.72;;
56267;SDS011;42175;46.930;9.532;2022-11-02T03:59:45;7.22;;;2.97;;
56267;SDS011;42175;46.930;9.532;2022-11-02T04:02:10;6.78;;;3.30;;
56267;SDS011;42175;46.930;9.532;2022-11-02T04:04:48;5.88;;;3.45;;
56267;SDS011;42175;46.930;9.532;2022-11-02T04:07:17;7.95;;;3.40;;
56267;SDS011;42175;46.930;9.532;2022-11-02T04:09:46;7.47;;;2.95;;
56267;SDS011;42175;46.930;9.532;2022-11-02T04:12:11;7.45;;;2.80;;
56267;SDS011;42175;46.930;9.532;2022-11-02T04:14:55;8.23;;;2.85;;
56267;SDS011;42175;46.930;9.532;2022-11-02T04:17:21;5.13;;;2.97;;
56267;SDS011;42175;46.930;9.532;2022-11-02T04:22:31;7.88;;;2.88;;
56267;SDS011;42175;46.930;9.532;2022-11-02T04:25:16;5.78;;;2.80;;
56267;SDS011;42175;46.930;9.532;2022-11-02T04:27:44;7.97;;;3.00;;
56267;SDS011;42175;46.930;9.532;2022-11-02T04:30:18;8.05;;;3.28;;
56267;SDS011;42175;46.930;9.532;2022-11-02T04:32:45;7.18;;;2.85;;
56267;SDS011;42175;46.930;9.532;2022-11-02T04:35:31;7.70;;;3.13;;
56267;SDS011;42175;46.930;9.532;2022-11-02T04:37:58;8.73;;;3.47;;
56267;SDS011;42175;46.930;9.532;2022-11-02T04:40:43;7.03;;;3.08;;
56267;SDS011;42175;46.930;9.532;2022-11-02T04:43:08;4.75;;;2.55;;
56267;SDS011;42175;46.930;9.532;2022-11-02T04:45:34;6.63;;;2.80;;
56267;SDS011;42175;46.930;9.532;2022-11-02T04:48:01;6.03;;;2.72;;
56267;SDS011;42175;46.930;9.532;2022-11-02T04:50:31;8.88;;;3.38;;
56267;SDS011;42175;46.930;9.532;2022-11-02T04:53:01;20.20;;;3.05;;
56267;SDS011;42175;46.930;9.532;2022-11-02T04:55:28;8.68;;;2.92;;
56267;SDS011;42175;46.930;9.532;2022-11-02T04:57:54;9.65;;;3.05;;
56267;SDS011;42175;46.930;9.532;2022-11-02T05:00:20;10.57;;;3.47;;
56267;SDS011;42175;46.930;9.532;2022-11-02T05:02:47;10.35;;;2.80;;
56267;SDS011;42175;46.930;9.532;2022-11-02T05:05:13;7.18;;;3.33;;
56267;SDS011;42175;46.930;9.532;2022-11-02T05:07:39;8.63;;;3.50;;
56267;SDS011;42175;46.930;9.532;2022-11-02T05:10:05;9.32;;;3.28;;
56267;SDS011;42175;46.930;9.532;2022-11-02T05:12:32;7.50;;;2.95;;
56267;SDS011;42175;46.930;9.532;2022-11-02T05:14:58;9.95;;;3.22;;
56267;SDS011;42175;46.930;9.532;2022-11-02T05:17:23;6.50;;;3.03;;
56267;SDS011;42175;46.930;9.532;2022-11-02T05:19:49;9.88;;;3.70;;
56267;SDS011;42175;46.930;9.532;2022-11-02T05:22:15;9.55;;;3.58;;
56267;SDS011;42175;46.930;9.532;2022-11-02T05:24:40;8.05;;;3.22;;
56267;SDS011;42175;46.930;9.532;2022-11-02T05:27:08;9.93;;;3.83;;
56267;SDS011;42175;46.930;9.532;2022-11-02T05:29:34;8.90;;;3.67;;
56267;SDS011;42175;46.930;9.532;2022-11-02T05:32:00;7.32;;;3.28;;
56267;SDS011;42175;46.930;9.532;2022-11-02T05:34:26;10.25;;;3.20;;
56267;SDS011;42175;46.930;9.532;2022-11-02T05:36:51;6.45;;;3.20;;
56267;SDS011;42175;46.930;9.532;2022-11-02T05:39:17;10.48;;;3.10;;
56267;SDS011;42175;46.930;9.532;2022-11-02T05:41:43;6.30;;;3.17;;
56267;SDS011;42175;46.930;9.532;2022-11-02T05:44:08;6.90;;;3.78;;
56267;SDS011;42175;46.930;9.532;2022-11-02T05:46:34;6.75;;;3.53;;
56267;SDS011;42175;46.930;9.532;2022-11-02T05:49:00;6.97;;;3.60;;
56267;SDS011;42175;46.930;9.532;2022-11-02T05:51:26;8.77;;;3.28;;
56267;SDS011;42175;46.930;9.532;2022-11-02T05:53:51;9.00;;;3.30;;
56267;SDS011;42175;46.930;9.532;2022-11-02T05:56:17;11.00;;;3.53;;
56267;SDS011;42175;46.930;9.532;2022-11-02T05:58:43;10.82;;;3.45;;
56267;SDS011;42175;46.930;9.532;2022-11-02T06:01:09;13.15;;;3.17;;
56267;SDS011;42175;46.930;9.532;2022-11-02T06:03:35;9.75;;;3.10;;
56267;SDS011;42175;46.930;9.532;2022-11-02T06:06:02;9.82;;;3.25;;
56267;SDS011;42175;46.930;9.532;2022-11-02T06:08:33;9.98;;;3.58;;
56267;SDS011;42175;46.930;9.532;2022-11-02T06:11:08;10.63;;;3.78;;
56267;SDS011;42175;46.930;9.532;2022-11-02T06:13:35;14.30;;;3.83;;
56267;SDS011;42175;46.930;9.532;2022-11-02T06:16:02;11.95;;;4.40;;
56267;SDS011;42175;46.930;9.532;2022-11-02T06:18:29;13.70;;;4.13;;
56267;SDS011;42175;46.930;9.532;2022-11-02T06:20:59;17.95;;;4.68;;
56267;SDS011;42175;46.930;9.532;2022-11-02T06:23:25;15.55;;;4.95;;
56267;SDS011;42175;46.930;9.532;2022-11-02T06:25:52;17.08;;;4.25;;
56267;SDS011;42175;46.930;9.532;2022-11-02T06:28:19;13.18;;;4.35;;
56267;SDS011;42175;46.930;9.532;2022-11-02T06:30:45;9.27;;;3.55;;
56267;SDS011;42175;46.930;9.532;2022-11-02T06:33:10;11.88;;;4.22;;
56267;SDS011;42175;46.930;9.532;2022-11-02T06:35:36;11.90;;;4.07;;
56267;SDS011;42175;46.930;9.532;2022-11-02T06:38:02;14.63;;;4.20;;
56267;SDS011;42175;46.930;9.532;2022-11-02T06:40:28;14.15;;;4.95;;
56267;SDS011;42175;46.930;9.532;2022-11-02T06:42:56;17.42;;;4.70;;
56267;SDS011;42175;46.930;9.532;2022-11-02T06:45:23;12.45;;;3.80;;
56267;SDS011;42175;46.930;9.532;2022-11-02T06:47:50;10.40;;;3.92;;
56267;SDS011;42175;46.930;9.532;2022-11-02T06:50:16;16.63;;;3.90;;
56267;SDS011;42175;46.930;9.532;2022-11-02T06:52:42;18.65;;;4.32;;
56267;SDS011;42175;46.930;9.532;2022-11-02T06:55:10;16.63;;;4.90;;
56267;SDS011;42175;46.930;9.532;2022-11-02T06:57:37;16.85;;;4.57;;
56267;SDS011;42175;46.930;9.532;2022-11-02T07:00:04;14.73;;;5.03;;
56267;SDS011;42175;46.930;9.532;2022-11-02T07:02:32;12.80;;;4.82;;
56267;SDS011;42175;46.930;9.532;2022-11-02T07:04:58;14.63;;;4.25;;
56267;SDS011;42175;46.930;9.532;2022-11-02T07:07:24;11.85;;;4.05;;
56267;SDS011;42175;46.930;9.532;2022-11-02T07:09:50;16.23;;;4.45;;
56267;SDS011;42175;46.930;9.532;2022-11-02T07:12:15;12.65;;;5.57;;
56267;SDS011;42175;46.930;9.532;2022-11-02T07:14:41;17.40;;;4.60;;
56267;SDS011;42175;46.930;9.532;2022-11-02T07:17:07;15.18;;;4.60;;
56267;SDS011;42175;46.930;9.532;2022-11-02T07:19:32;12.82;;;5.78;;
56267;SDS011;42175;46.930;9.532;2022-11-02T07:21:58;12.85;;;5.00;;
56267;SDS011;42175;46.930;9.532;2022-11-02T07:24:24;14.15;;;4.68;;
56267;SDS011;42175;46.930;9.532;2022-11-02T07:26:49;12.48;;;4.10;;
56267;SDS011;42175;46.930;9.532;2022-11-02T07:29:18;9.63;;;4.47;;
56267;SDS011;42175;46.930;9.532;2022-11-02T07:31:44;11.07;;;5.22;;
56267;SDS011;42175;46.930;9.532;2022-11-02T07:34:10;10.10;;;4.75;;
56267;SDS011;42175;46.930;9.532;2022-11-02T07:36:37;14.45;;;4.57;;
56267;SDS011;42175;46.930;9.532;2022-11-02T07:39:03;8.65;;;4.50;;
56267;SDS011;42175;46.930;9.532;2022-11-02T07:41:30;11.73;;;4.40;;
56267;SDS011;42175;46.930;9.532;2022-11-02T07:43:56;11.82;;;4.47;;
56267;SDS011;42175;46.930;9.532;2022-11-02T07:46:22;15.88;;;4.53;;
56267;SDS011;42175;46.930;9.532;2022-11-02T07:48:47;14.75;;;4.55;;
56267;SDS011;42175;46.930;9.532;2022-11-02T07:51:13;8.68;;;4.90;;
56267;SDS011;42175;46.930;9.532;2022-11-02T07:53:39;8.98;;;4.40;;
56267;SDS011;42175;46.930;9.532;2022-11-02T07:56:04;12.57;;;4.72;;
56267;SDS011;42175;46.930;9.532;2022-11-02T07:58:31;10.90;;;4.30;;
56267;SDS011;42175;46.930;9.532;2022-11-02T08:00:57;11.95;;;4.00;;
56267;SDS011;42175;46.930;9.532;2022-11-02T08:03:25;13.13;;;4.50;;
56267;SDS011;42175;46.930;9.532;2022-11-02T08:05:51;9.50;;;4.00;;
56267;SDS011;42175;46.930;9.532;2022-11-02T08:08:18;13.75;;;4.82;;
56267;SDS011;42175;46.930;9.532;2022-11-02T08:10:46;14.23;;;3.97;;
56267;SDS011;42175;46.930;9.532;2022-11-02T08:13:19;9.70;;;4.50;;
56267;SDS011;42175;46.930;9.532;2022-11-02T08:15:50;9.95;;;4.43;;
56267;SDS011;42175;46.930;9.532;2022-11-02T08:18:21;9.23;;;4.53;;
56267;SDS011;42175;46.930;9.532;2022-11-02T08:20:53;8.88;;;4.53;;
56267;SDS011;42175;46.930;9.532;2022-11-02T08:23:20;18.25;;;5.03;;
56267;SDS011;42175;46.930;9.532;2022-11-02T08:25:46;13.80;;;5.00;;
56267;SDS011;42175;46.930;9.532;2022-11-02T08:28:15;17.27;;;3.80;;
56267;SDS011;42175;46.930;9.532;2022-11-02T08:30:48;15.48;;;4.22;;
56267;SDS011;42175;46.930;9.532;2022-11-02T08:33:15;14.18;;;4.32;;
56267;SDS011;42175;46.930;9.532;2022-11-02T08:35:43;19.15;;;4.72;;
56267;SDS011;42175;46.930;9.532;2022-11-02T08:38:10;18.05;;;4.05;;
56267;SDS011;42175;46.930;9.532;2022-11-02T08:40:36;15.40;;;4.00;;
56267;SDS011;42175;46.930;9.532;2022-11-02T08:43:07;24.95;;;5.00;;
56267;SDS011;42175;46.930;9.532;2022-11-02T08:45:35;17.98;;;3.90;;
56267;SDS011;42175;46.930;9.532;2022-11-02T08:48:03;28.40;;;5.20;;
56267;SDS011;42175;46.930;9.532;2022-11-02T08:50:29;21.45;;;4.47;;
56267;SDS011;42175;46.930;9.532;2022-11-02T08:52:55;22.88;;;4.68;;
56267;SDS011;42175;46.930;9.532;2022-11-02T08:55:21;20.58;;;4.63;;
56267;SDS011;42175;46.930;9.532;2022-11-02T08:57:51;63.72;;;7.15;;
56267;SDS011;42175;46.930;9.532;2022-11-02T09:00:19;19.10;;;4.57;;
56267;SDS011;42175;46.930;9.532;2022-11-02T09:03:00;15.27;;;4.22;;
56267;SDS011;42175;46.930;9.532;2022-11-02T09:05:30;17.55;;;5.57;;
56267;SDS011;42175;46.930;9.532;2022-11-02T09:07:58;21.55;;;7.22;;
56267;SDS011;42175;46.930;9.532;2022-11-02T09:10:26;28.30;;;13.55;;
56267;SDS011;42175;46.930;9.532;2022-11-02T09:12:54;27.73;;;14.13;;
56267;SDS011;42175;46.930;9.532;2022-11-02T09:15:20;33.35;;;9.32;;
56267;SDS011;42175;46.930;9.532;2022-11-02T09:17:47;28.17;;;10.05;;
56267;SDS011;42175;46.930;9.532;2022-11-02T09:20:17;19.60;;;8.93;;
56267;SDS011;42175;46.930;9.532;2022-11-02T09:22:44;29.90;;;10.50;;
56267;SDS011;42175;46.930;9.532;2022-11-02T09:25:10;27.27;;;10.07;;
56267;SDS011;42175;46.930;9.532;2022-11-02T09:27:37;18.92;;;8.10;;
56267;SDS011;42175;46.930;9.532;2022-11-02T09:30:04;17.25;;;6.43;;
56267;SDS011;42175;46.930;9.532;2022-11-02T09:32:31;21.58;;;6.80;;
56267;SDS011;42175;46.930;9.532;2022-11-02T09:35:01;16.88;;;5.28;;
56267;SDS011;42175;46.930;9.532;2022-11-02T09:37:28;20.73;;;6.03;;
56267;SDS011;42175;46.930;9.532;2022-11-02T09:39:54;16.95;;;4.93;;
56267;SDS011;42175;46.930;9.532;2022-11-02T09:45:05;14.43;;;4.97;;
56267;SDS011;42175;46.930;9.532;2022-11-02T09:47:39;14.07;;;4.95;;
56267;SDS011;42175;46.930;9.532;2022-11-02T09:50:17;19.35;;;4.85;;
56267;SDS011;42175;46.930;9.532;2022-11-02T09:52:50;15.18;;;4.63;;
56267;SDS011;42175;46.930;9.532;2022-11-02T09:55:21;18.10;;;4.78;;
56267;SDS011;42175;46.930;9.532;2022-11-02T09:57:54;13.05;;;4.75;;
56267;SDS011;42175;46.930;9.532;2022-11-02T10:00:26;12.55;;;4.05;;
56267;SDS011;42175;46.930;9.532;2022-11-02T10:06:10;14.90;;;3.72;;
56267;SDS011;42175;46.930;9.532;2022-11-02T10:14:15;9.65;;;3.60;;
56267;SDS011;42175;46.930;9.532;2022-11-02T10:19:37;9.63;;;3.33;;
56267;SDS011;42175;46.930;9.532;2022-11-02T10:22:07;11.68;;;2.70;;
56267;SDS011;42175;46.930;9.532;2022-11-02T10:24:38;15.48;;;4.32;;
56267;SDS011;42175;46.930;9.532;2022-11-02T10:27:21;10.43;;;3.13;;
56267;SDS011;42175;46.930;9.532;2022-11-02T10:30:00;14.65;;;4.05;;
56267;SDS011;42175;46.930;9.532;2022-11-02T10:32:27;14.73;;;3.72;;
56267;SDS011;42175;46.930;9.532;2022-11-02T10:34:55;14.85;;;5.35;;
56267;SDS011;42175;46.930;9.532;2022-11-02T10:51:29;14.05;;;3.25;;
56267;SDS011;42175;46.930;9.532;2022-11-02T10:53:55;13.45;;;3.50;;
56267;SDS011;42175;46.930;9.532;2022-11-02T10:56:22;10.52;;;3.40;;
56267;SDS011;42175;46.930;9.532;2022-11-02T10:59:02;8.82;;;3.13;;
56267;SDS011;42175;46.930;9.532;2022-11-02T11:01:44;8.15;;;3.00;;
56267;SDS011;42175;46.930;9.532;2022-11-02T11:04:29;14.60;;;3.20;;
56267;SDS011;42175;46.930;9.532;2022-11-02T11:06:57;10.60;;;3.78;;
56267;SDS011;42175;46.930;9.532;2022-11-02T11:09:29;10.57;;;3.13;;
56267;SDS011;42175;46.930;9.532;2022-11-02T11:12:02;12.45;;;2.75;;
56267;SDS011;42175;46.930;9.532;2022-11-02T11:14:54;11.57;;;3.70;;
56267;SDS011;42175;46.930;9.532;2022-11-02T11:17:30;8.63;;;3.53;;
56267;SDS011;42175;46.930;9.532;2022-11-02T11:19:58;11.98;;;3.75;;
56267;SDS011;42175;46.930;9.532;2022-11-02T11:24:51;9.93;;;3.13;;
56267;SDS011;42175;46.930;9.532;2022-11-02T11:27:18;12.52;;;3.80;;
56267;SDS011;42175;46.930;9.532;2022-11-02T11:29:52;12.80;;;4.00;;
56267;SDS011;42175;46.930;9.532;2022-11-02T11:32:23;7.85;;;3.30;;
56267;SDS011;42175;46.930;9.532;2022-11-02T11:35:00;11.10;;;3.60;;
56267;SDS011;42175;46.930;9.532;2022-11-02T11:37:31;12.57;;;3.55;;
56267;SDS011;42175;46.930;9.532;2022-11-02T11:40:14;14.15;;;3.65;;
56267;SDS011;42175;46.930;9.532;2022-11-02T11:42:45;10.38;;;3.17;;
56267;SDS011;42175;46.930;9.532;2022-11-02T11:45:27;10.48;;;3.67;;
56267;SDS011;42175;46.930;9.532;2022-11-02T11:48:00;6.55;;;2.70;;
56267;SDS011;42175;46.930;9.532;2022-11-02T11:50:47;14.88;;;3.50;;
56267;SDS011;42175;46.930;9.532;2022-11-02T11:53:23;10.48;;;4.07;;
56267;SDS011;42175;46.930;9.532;2022-11-02T11:55:54;12.30;;;3.22;;
56267;SDS011;42175;46.930;9.532;2022-11-02T11:58:27;9.68;;;3.22;;
56267;SDS011;42175;46.930;9.532;2022-11-02T12:03:51;9.15;;;3.05;;
56267;SDS011;42175;46.930;9.532;2022-11-02T12:09:42;10.90;;;3.63;;
56267;SDS011;42175;46.930;9.532;2022-11-02T12:20:44;8.80;;;3.22;;
56267;SDS011;42175;46.930;9.532;2022-11-02T12:23:26;8.32;;;3.03;;
56267;SDS011;42175;46.930;9.532;2022-11-02T12:31:18;9.20;;;2.88;;
56267;SDS011;42175;46.930;9.532;2022-11-02T12:45:01;11.52;;;3.05;;
56267;SDS011;42175;46.930;9.532;2022-11-02T12:47:43;8.88;;;3.22;;
56267;SDS011;42175;46.930;9.532;2022-11-02T12:50:24;12.60;;;3.80;;
56267;SDS011;42175;46.930;9.532;2022-11-02T12:53:19;8.68;;;3.55;;
56267;SDS011;42175;46.930;9.532;2022-11-02T12:55:47;12.73;;;2.70;;
56267;SDS011;42175;46.930;9.532;2022-11-02T12:58:21;8.23;;;3.15;;
56267;SDS011;42175;46.930;9.532;2022-11-02T13:00:54;6.95;;;2.80;;
56267;SDS011;42175;46.930;9.532;2022-11-02T13:06:13;12.18;;;4.55;;
56267;SDS011;42175;46.930;9.532;2022-11-02T13:11:21;8.15;;;3.28;;
56267;SDS011;42175;46.930;9.532;2022-11-02T13:13:56;12.95;;;3.35;;
56267;SDS011;42175;46.930;9.532;2022-11-02T13:16:34;7.82;;;2.85;;
56267;SDS011;42175;46.930;9.532;2022-11-02T13:19:05;10.15;;;3.53;;
56267;SDS011;42175;46.930;9.532;2022-11-02T13:21:42;11.82;;;3.33;;
56267;SDS011;42175;46.930;9.532;2022-11-02T13:24:17;7.63;;;2.60;;
56267;SDS011;42175;46.930;9.532;2022-11-02T13:26:46;10.80;;;3.00;;
56267;SDS011;42175;46.930;9.532;2022-11-02T13:29:29;9.98;;;3.33;;
56267;SDS011;42175;46.930;9.532;2022-11-02T13:32:12;9.02;;;2.72;;
56267;SDS011;42175;46.930;9.532;2022-11-02T13:34:45;6.25;;;2.78;;
56267;SDS011;42175;46.930;9.532;2022-11-02T13:37:25;6.28;;;2.97;;
56267;SDS011;42175;46.930;9.532;2022-11-02T13:39:58;9.95;;;3.33;;
56267;SDS011;42175;46.930;9.532;2022-11-02T13:50:25;12.05;;;3.20;;
56267;SDS011;42175;46.930;9.532;2022-11-02T13:53:11;5.72;;;2.50;;
56267;SDS011;42175;46.930;9.532;2022-11-02T13:55:45;6.95;;;2.63;;
56267;SDS011;42175;46.930;9.532;2022-11-02T14:01:17;7.45;;;2.72;;
56267;SDS011;42175;46.930;9.532;2022-11-02T14:03:46;8.27;;;3.28;;
56267;SDS011;42175;46.930;9.532;2022-11-02T14:06:16;9.95;;;2.67;;
56267;SDS011;42175;46.930;9.532;2022-11-02T14:27:03;7.10;;;3.20;;
56267;SDS011;42175;46.930;9.532;2022-11-02T14:29:52;9.18;;;2.95;;
56267;SDS011;42175;46.930;9.532;2022-11-02T14:48:46;9.32;;;3.15;;
56267;SDS011;42175;46.930;9.532;2022-11-02T14:51:27;5.88;;;2.70;;
56267;SDS011;42175;46.930;9.532;2022-11-02T14:53:59;7.82;;;3.03;;
56267;SDS011;42175;46.930;9.532;2022-11-02T14:56:45;6.78;;;2.67;;
56267;SDS011;42175;46.930;9.532;2022-11-02T14:59:39;7.93;;;2.78;;
56267;SDS011;42175;46.930;9.532;2022-11-02T15:04:49;5.07;;;2.25;;
56267;SDS011;42175;46.930;9.532;2022-11-02T15:07:21;7.45;;;2.40;;
56267;SDS011;42175;46.930;9.532;2022-11-02T15:09:57;5.95;;;2.60;;
56267;SDS011;42175;46.930;9.532;2022-11-02T15:12:33;12.45;;;2.97;;
56267;SDS011;42175;46.930;9.532;2022-11-02T15:22:41;14.63;;;3.30;;
56267;SDS011;42175;46.930;9.532;2022-11-02T15:25:17;9.95;;;3.17;;
56267;SDS011;42175;46.930;9.532;2022-11-02T15:27:56;8.68;;;2.90;;
56267;SDS011;42175;46.930;9.532;2022-11-02T15:31:12;19.30;;;3.33;;
56267;SDS011;42175;46.930;9.532;2022-11-02T15:33:42;12.40;;;2.70;;
56267;SDS011;42175;46.930;9.532;2022-11-02T15:36:23;6.25;;;2.65;;
56267;SDS011;42175;46.930;9.532;2022-11-02T15:39:05;7.50;;;2.40;;
56267;SDS011;42175;46.930;9.532;2022-11-02T15:44:29;8.90;;;2.60;;
56267;SDS011;42175;46.930;9.532;2022-11-02T15:47:06;9.20;;;2.63;;
56267;SDS011;42175;46.930;9.532;2022-11-02T16:00:36;6.88;;;2.47;;
56267;SDS011;42175;46.930;9.532;2022-11-02T16:03:03;6.30;;;2.40;;
56267;SDS011;42175;46.930;9.532;2022-11-02T16:08:02;8.25;;;2.45;;
56267;SDS011;42175;46.930;9.532;2022-11-02T16:10:32;8.88;;;2.20;;
56267;SDS011;42175;46.930;9.532;2022-11-02T16:12:59;5.55;;;2.35;;
56267;SDS011;42175;46.930;9.532;2022-11-02T16:15:34;6.60;;;2.50;;
56267;SDS011;42175;46.930;9.532;2022-11-02T16:18:00;12.55;;;2.58;;
56267;SDS011;42175;46.930;9.532;2022-11-02T16:20:27;10.85;;;2.40;;
56267;SDS011;42175;46.930;9.532;2022-11-02T16:22:56;13.25;;;3.53;;
56267;SDS011;42175;46.930;9.532;2022-11-02T16:30:37;41.97;;;8.23;;
56267;SDS011;42175;46.930;9.532;2022-11-02T16:33:03;47.58;;;10.13;;
56267;SDS011;42175;46.930;9.532;2022-11-02T16:35:30;33.60;;;7.75;;
56267;SDS011;42175;46.930;9.532;2022-11-02T16:37:57;40.35;;;7.90;;
56267;SDS011;42175;46.930;9.532;2022-11-02T16:40:22;42.10;;;8.02;;
56267;SDS011;42175;46.930;9.532;2022-11-02T16:42:50;34.38;;;7.75;;
56267;SDS011;42175;46.930;9.532;2022-11-02T16:47:56;36.03;;;7.70;;
56267;SDS011;42175;46.930;9.532;2022-11-02T16:50:23;37.20;;;7.40;;
56267;SDS011;42175;46.930;9.532;2022-11-02T16:52:52;36.05;;;6.97;;
56267;SDS011;42175;46.930;9.532;2022-11-02T16:55:39;40.30;;;7.60;;
56267;SDS011;42175;46.930;9.532;2022-11-02T16:58:28;33.05;;;8.30;;
56267;SDS011;42175;46.930;9.532;2022-11-02T17:00:57;34.47;;;7.68;;
56267;SDS011;42175;46.930;9.532;2022-11-02T17:03:28;34.20;;;7.82;;
56267;SDS011;42175;46.930;9.532;2022-11-02T17:05:56;23.52;;;5.97;;
56267;SDS011;42175;46.930;9.532;2022-11-02T17:08:33;31.40;;;8.05;;
56267;SDS011;42175;46.930;9.532;2022-11-02T17:13:28;34.80;;;7.45;;
56267;SDS011;42175;46.930;9.532;2022-11-02T17:16:03;29.23;;;6.15;;
56267;SDS011;42175;46.930;9.532;2022-11-02T17:18:32;28.98;;;6.95;;
56267;SDS011;42175;46.930;9.532;2022-11-02T17:23:36;36.13;;;7.95;;
56267;SDS011;42175;46.930;9.532;2022-11-02T17:28:51;33.33;;;7.32;;
56267;SDS011;42175;46.930;9.532;2022-11-02T17:31:28;24.17;;;6.88;;
56267;SDS011;42175;46.930;9.532;2022-11-02T17:33:58;27.92;;;8.15;;
56267;SDS011;42175;46.930;9.532;2022-11-02T17:36:42;23.67;;;5.45;;
56267;SDS011;42175;46.930;9.532;2022-11-02T17:39:11;25.90;;;6.18;;
56267;SDS011;42175;46.930;9.532;2022-11-02T17:41:42;23.90;;;6.60;;
56267;SDS011;42175;46.930;9.532;2022-11-02T17:44:27;28.50;;;5.60;;
56267;SDS011;42175;46.930;9.532;2022-11-02T17:46:53;20.30;;;6.00;;
56267;SDS011;42175;46.930;9.532;2022-11-02T17:49:19;18.25;;;6.18;;
56267;SDS011;42175;46.930;9.532;2022-11-02T17:51:45;25.83;;;5.57;;
56267;SDS011;42175;46.930;9.532;2022-11-02T17:54:12;19.30;;;5.45;;
56267;SDS011;42175;46.930;9.532;2022-11-02T17:56:39;17.02;;;5.80;;
56267;SDS011;42175;46.930;9.532;2022-11-02T17:59:05;15.95;;;3.83;;
56267;SDS011;42175;46.930;9.532;2022-11-02T18:01:31;17.65;;;4.95;;
56267;SDS011;42175;46.930;9.532;2022-11-02T18:03:57;16.10;;;4.57;;
56267;SDS011;42175;46.930;9.532;2022-11-02T18:06:23;18.77;;;4.53;;
56267;SDS011;42175;46.930;9.532;2022-11-02T18:08:48;21.50;;;5.25;;
56267;SDS011;42175;46.930;9.532;2022-11-02T18:13:58;17.63;;;4.68;;
56267;SDS011;42175;46.930;9.532;2022-11-02T18:16:24;17.13;;;4.18;;
56267;SDS011;42175;46.930;9.532;2022-11-02T18:18:50;15.02;;;4.78;;